KSGU/SGU METAR and TAF weather

Enter ICAO airport designator
Station Type Date Time Source
KSGU METAR 2022/11/26 08:56 UTC NOAA

KSGU 260856Z AUTO 00000KT 10SM CLR 02/M08 A3023 RMK AO2 SLP240 T00171083 55011 FZRANO


Station Type Date Time Source
KSGU Decoded METAR 2022/11/26 08:56 UTC NOAA

St George, St George Municipal Airport, UT, United States (KSGU) 37-05N 113-36W
Nov 26, 2022 - 03:56 AM EST / 2022.11.26 0856 UTC
Wind: Calm:0
Visibility: 10 mile(s):0
Sky conditions: clear
Temperature: 35.1 F (1.7 C)
Dew Point: 17.1 F (-8.3 C)
Relative Humidity: 47%
Pressure (altimeter): 30.23 in. Hg (1023 hPa)
Pressure tendency: 0.03 inches (1.1 hPa) lower than three hours ago
ob: KSGU 260856Z AUTO 00000KT 10SM CLR 02/M08 A3023 RMK AO2 SLP240 T00171083 55011 FZRANO
cycle: 9

Station Type Date Time Source
KSGU TAF 2022/11/26 06:22 UTC NOAA

TAF KSGU 260520Z 2606/2706 VRB05KT P6SM SKC
FM262000 25008KT P6SM SCT100 BKN150
FM270000 VRB05KT P6SM SKC

Example: see airport list